sensor_id;sensor_type;location;lat;lon;timestamp;pressure;altitude;pressure_sealevel;temperature;humidity
6393;BME280;3229;42.674;23.282;2023-08-24T00:01:57;94783.72;;;24.04;70.88
6393;BME280;3229;42.674;23.282;2023-08-24T00:04:24;94780.78;;;24.01;70.81
6393;BME280;3229;42.674;23.282;2023-08-24T00:06:51;94780.16;;;23.99;71.18
6393;BME280;3229;42.674;23.282;2023-08-24T00:09:18;94783.81;;;23.98;71.34
6393;BME280;3229;42.674;23.282;2023-08-24T00:11:45;94775.59;;;23.94;71.38
6393;BME280;3229;42.674;23.282;2023-08-24T00:14:12;94781.06;;;23.93;71.44
6393;BME280;3229;42.674;23.282;2023-08-24T00:16:39;94778.09;;;23.89;71.35
6393;BME280;3229;42.674;23.282;2023-08-24T00:19:07;94770.47;;;23.88;71.97
6393;BME280;3229;42.674;23.282;2023-08-24T00:21:34;94771.94;;;23.84;72.25
6393;BME280;3229;42.674;23.282;2023-08-24T00:24:01;94764.72;;;23.79;72.21
6393;BME280;3229;42.674;23.282;2023-08-24T00:26:28;94767.78;;;23.76;72.41
6393;BME280;3229;42.674;23.282;2023-08-24T00:28:54;94759.56;;;23.72;72.74
6393;BME280;3229;42.674;23.282;2023-08-24T00:31:21;94763.63;;;23.68;73.10
6393;BME280;3229;42.674;23.282;2023-08-24T00:33:48;94767.28;;;23.67;73.61
6393;BME280;3229;42.674;23.282;2023-08-24T00:36:17;94771.09;;;23.65;73.86
6393;BME280;3229;42.674;23.282;2023-08-24T00:38:44;94770.50;;;23.63;74.01
6393;BME280;3229;42.674;23.282;2023-08-24T00:41:16;94764.13;;;23.59;74.18
6393;BME280;3229;42.674;23.282;2023-08-24T00:43:43;94767.16;;;23.56;73.90
6393;BME280;3229;42.674;23.282;2023-08-24T00:46:10;94771.81;;;23.53;73.84
6393;BME280;3229;42.674;23.282;2023-08-24T00:48:37;94772.78;;;23.52;73.73
6393;BME280;3229;42.674;23.282;2023-08-24T00:51:04;94778.63;;;23.54;73.15
6393;BME280;3229;42.674;23.282;2023-08-24T00:53:33;94780.19;;;23.56;72.87
6393;BME280;3229;42.674;23.282;2023-08-24T00:56:00;94772.06;;;23.45;72.70
6393;BME280;3229;42.674;23.282;2023-08-24T00:58:27;94761.91;;;23.37;72.91
6393;BME280;3229;42.674;23.282;2023-08-24T01:00:55;94774.88;;;23.44;73.20
6393;BME280;3229;42.674;23.282;2023-08-24T01:03:23;94770.53;;;23.38;73.46
6393;BME280;3229;42.674;23.282;2023-08-24T01:05:50;94771.41;;;23.32;73.47
6393;BME280;3229;42.674;23.282;2023-08-24T01:08:17;94770.38;;;23.33;73.28
6393;BME280;3229;42.674;23.282;2023-08-24T01:10:50;94772.63;;;23.29;73.62
6393;BME280;3229;42.674;23.282;2023-08-24T01:13:23;94763.63;;;23.25;73.99
6393;BME280;3229;42.674;23.282;2023-08-24T01:15:57;94766.47;;;23.23;74.23
6393;BME280;3229;42.674;23.282;2023-08-24T01:18:26;94766.22;;;23.25;74.16
6393;BME280;3229;42.674;23.282;2023-08-24T01:20:55;94755.41;;;23.21;74.49
6393;BME280;3229;42.674;23.282;2023-08-24T01:23:34;94748.59;;;23.20;74.64
6393;BME280;3229;42.674;23.282;2023-08-24T01:26:07;94757.66;;;23.18;74.71
6393;BME280;3229;42.674;23.282;2023-08-24T01:28:34;94744.16;;;23.02;74.74
6393;BME280;3229;42.674;23.282;2023-08-24T01:31:01;94762.97;;;23.04;75.14
6393;BME280;3229;42.674;23.282;2023-08-24T01:33:30;94764.38;;;23.07;75.37
6393;BME280;3229;42.674;23.282;2023-08-24T01:35:56;94740.41;;;22.92;75.43
6393;BME280;3229;42.674;23.282;2023-08-24T01:38:23;94769.59;;;23.07;75.59
6393;BME280;3229;42.674;23.282;2023-08-24T01:40:54;94697.91;;;22.60;75.78
6393;BME280;3229;42.674;23.282;2023-08-24T01:43:29;94766.22;;;23.00;76.34
6393;BME280;3229;42.674;23.282;2023-08-24T01:45:59;94766.47;;;22.98;76.38
6393;BME280;3229;42.674;23.282;2023-08-24T01:48:29;94765.28;;;22.94;75.84
6393;BME280;3229;42.674;23.282;2023-08-24T01:50:57;94780.88;;;23.01;76.22
6393;BME280;3229;42.674;23.282;2023-08-24T01:53:25;94776.88;;;22.98;76.72
6393;BME280;3229;42.674;23.282;2023-08-24T01:55:52;94774.47;;;22.97;76.66
6393;BME280;3229;42.674;23.282;2023-08-24T01:58:20;94768.53;;;22.90;76.86
6393;BME280;3229;42.674;23.282;2023-08-24T02:00:48;94771.72;;;22.92;77.14
6393;BME280;3229;42.674;23.282;2023-08-24T02:03:15;94772.13;;;22.89;77.14
6393;BME280;3229;42.674;23.282;2023-08-24T02:05:41;94773.91;;;22.95;77.72
6393;BME280;3229;42.674;23.282;2023-08-24T02:08:08;94773.53;;;22.91;77.65
6393;BME280;3229;42.674;23.282;2023-08-24T02:10:35;94774.53;;;22.90;77.56
6393;BME280;3229;42.674;23.282;2023-08-24T02:13:02;94771.53;;;22.87;77.72
6393;BME280;3229;42.674;23.282;2023-08-24T02:15:29;94776.16;;;22.85;77.58
6393;BME280;3229;42.674;23.282;2023-08-24T02:17:57;94778.97;;;22.83;77.93
6393;BME280;3229;42.674;23.282;2023-08-24T02:20:23;94778.78;;;22.85;78.79
6393;BME280;3229;42.674;23.282;2023-08-24T02:22:50;94785.78;;;22.84;78.69
6393;BME280;3229;42.674;23.282;2023-08-24T02:25:17;94784.66;;;22.73;79.35
6393;BME280;3229;42.674;23.282;2023-08-24T02:27:44;94788.13;;;22.67;79.44
6393;BME280;3229;42.674;23.282;2023-08-24T02:30:12;94787.91;;;22.62;79.76
6393;BME280;3229;42.674;23.282;2023-08-24T02:32:39;94792.16;;;22.57;79.73
6393;BME280;3229;42.674;23.282;2023-08-24T02:35:08;94789.97;;;22.53;80.11
6393;BME280;3229;42.674;23.282;2023-08-24T02:37:35;94788.78;;;22.49;80.43
6393;BME280;3229;42.674;23.282;2023-08-24T02:40:02;94779.81;;;22.45;80.71
6393;BME280;3229;42.674;23.282;2023-08-24T02:42:30;94706.28;;;21.98;80.74
6393;BME280;3229;42.674;23.282;2023-08-24T02:44:57;94760.00;;;22.38;80.86
6393;BME280;3229;42.674;23.282;2023-08-24T02:47:24;94764.19;;;22.39;80.90
6393;BME280;3229;42.674;23.282;2023-08-24T02:49:51;94761.81;;;22.37;81.39
6393;BME280;3229;42.674;23.282;2023-08-24T02:52:19;94757.00;;;22.34;81.32
6393;BME280;3229;42.674;23.282;2023-08-24T02:54:46;94754.03;;;22.31;81.49
6393;BME280;3229;42.674;23.282;2023-08-24T02:57:13;94755.03;;;22.29;81.40
6393;BME280;3229;42.674;23.282;2023-08-24T02:59:39;94752.22;;;22.31;81.31
6393;BME280;3229;42.674;23.282;2023-08-24T03:02:09;94750.41;;;22.32;81.25
6393;BME280;3229;42.674;23.282;2023-08-24T03:04:35;94756.78;;;22.36;81.21
6393;BME280;3229;42.674;23.282;2023-08-24T03:07:02;94743.38;;;22.32;81.93
6393;BME280;3229;42.674;23.282;2023-08-24T03:09:30;94760.41;;;22.35;81.90
6393;BME280;3229;42.674;23.282;2023-08-24T03:11:57;94763.66;;;22.30;81.75
6393;BME280;3229;42.674;23.282;2023-08-24T03:14:24;94772.03;;;22.32;82.17
6393;BME280;3229;42.674;23.282;2023-08-24T03:16:51;94775.09;;;22.29;81.98
6393;BME280;3229;42.674;23.282;2023-08-24T03:19:17;94777.88;;;22.27;82.21
6393;BME280;3229;42.674;23.282;2023-08-24T03:21:44;94780.13;;;22.24;81.88
6393;BME280;3229;42.674;23.282;2023-08-24T03:24:11;94779.50;;;22.22;82.11
6393;BME280;3229;42.674;23.282;2023-08-24T03:26:39;94785.75;;;22.21;82.07
6393;BME280;3229;42.674;23.282;2023-08-24T03:29:06;94800.56;;;22.20;82.24
6393;BME280;3229;42.674;23.282;2023-08-24T03:31:33;94797.19;;;22.20;82.40
6393;BME280;3229;42.674;23.282;2023-08-24T03:33:59;94800.97;;;22.17;82.33
6393;BME280;3229;42.674;23.282;2023-08-24T03:36:26;94797.59;;;22.17;82.56
6393;BME280;3229;42.674;23.282;2023-08-24T03:38:53;94803.81;;;22.16;82.47
6393;BME280;3229;42.674;23.282;2023-08-24T03:41:20;94797.78;;;22.09;83.04
6393;BME280;3229;42.674;23.282;2023-08-24T03:43:50;94805.38;;;22.10;83.06
6393;BME280;3229;42.674;23.282;2023-08-24T03:46:16;94814.19;;;22.09;83.34
6393;BME280;3229;42.674;23.282;2023-08-24T03:48:43;94812.81;;;22.07;83.26
6393;BME280;3229;42.674;23.282;2023-08-24T03:51:10;94796.63;;;21.98;83.33
6393;BME280;3229;42.674;23.282;2023-08-24T03:53:37;94822.63;;;22.11;83.44
6393;BME280;3229;42.674;23.282;2023-08-24T03:56:04;94822.63;;;22.11;83.26
6393;BME280;3229;42.674;23.282;2023-08-24T03:58:31;94817.59;;;22.10;83.25
6393;BME280;3229;42.674;23.282;2023-08-24T04:00:59;94816.63;;;22.11;83.47
6393;BME280;3229;42.674;23.282;2023-08-24T04:03:26;94810.00;;;22.08;83.49
6393;BME280;3229;42.674;23.282;2023-08-24T04:05:52;94814.81;;;22.04;83.88
6393;BME280;3229;42.674;23.282;2023-08-24T04:08:19;94810.81;;;22.09;83.86
6393;BME280;3229;42.674;23.282;2023-08-24T04:10:46;94813.00;;;22.05;84.03
6393;BME280;3229;42.674;23.282;2023-08-24T04:13:13;94812.63;;;22.08;83.80
6393;BME280;3229;42.674;23.282;2023-08-24T04:15:39;94813.41;;;22.09;83.77
6393;BME280;3229;42.674;23.282;2023-08-24T04:18:07;94809.81;;;22.03;84.44
6393;BME280;3229;42.674;23.282;2023-08-24T04:20:34;94815.59;;;22.12;84.28
6393;BME280;3229;42.674;23.282;2023-08-24T04:23:02;94811.22;;;22.12;84.28
6393;BME280;3229;42.674;23.282;2023-08-24T04:25:29;94803.41;;;22.12;84.56
6393;BME280;3229;42.674;23.282;2023-08-24T04:27:56;94809.00;;;22.16;84.51
6393;BME280;3229;42.674;23.282;2023-08-24T04:30:22;94812.00;;;22.19;84.53
6393;BME280;3229;42.674;23.282;2023-08-24T04:32:49;94817.97;;;22.26;84.24
6393;BME280;3229;42.674;23.282;2023-08-24T04:35:17;94818.94;;;22.32;84.25
6393;BME280;3229;42.674;23.282;2023-08-24T04:37:45;94814.91;;;22.36;83.72
6393;BME280;3229;42.674;23.282;2023-08-24T04:40:12;94815.75;;;22.37;83.16
6393;BME280;3229;42.674;23.282;2023-08-24T04:42:38;94819.94;;;22.38;82.67
6393;BME280;3229;42.674;23.282;2023-08-24T04:45:05;94818.13;;;22.38;82.52
6393;BME280;3229;42.674;23.282;2023-08-24T04:47:33;94818.94;;;22.39;82.52
6393;BME280;3229;42.674;23.282;2023-08-24T04:49:59;94823.31;;;22.45;82.33
6393;BME280;3229;42.674;23.282;2023-08-24T04:52:28;94817.50;;;22.43;82.35
6393;BME280;3229;42.674;23.282;2023-08-24T04:54:54;94814.28;;;22.47;82.68
6393;BME280;3229;42.674;23.282;2023-08-24T04:57:21;94824.69;;;22.54;82.32
6393;BME280;3229;42.674;23.282;2023-08-24T04:59:48;94824.06;;;22.59;81.75
6393;BME280;3229;42.674;23.282;2023-08-24T05:02:15;94818.78;;;22.65;81.15
6393;BME280;3229;42.674;23.282;2023-08-24T05:04:42;94743.66;;;22.24;81.32
6393;BME280;3229;42.674;23.282;2023-08-24T05:07:08;94819.09;;;22.82;81.34
6393;BME280;3229;42.674;23.282;2023-08-24T05:09:36;94813.84;;;22.89;80.78
6393;BME280;3229;42.674;23.282;2023-08-24T05:12:04;94816.00;;;22.98;80.89
6393;BME280;3229;42.674;23.282;2023-08-24T05:14:31;94827.78;;;23.08;80.15
6393;BME280;3229;42.674;23.282;2023-08-24T05:16:59;94815.38;;;23.03;79.93
6393;BME280;3229;42.674;23.282;2023-08-24T05:19:26;94825.72;;;23.16;79.38
6393;BME280;3229;42.674;23.282;2023-08-24T05:21:52;94840.97;;;23.19;79.49
6393;BME280;3229;42.674;23.282;2023-08-24T05:24:20;94832.25;;;23.25;79.03
6393;BME280;3229;42.674;23.282;2023-08-24T05:26:48;94830.78;;;23.36;78.57
6393;BME280;3229;42.674;23.282;2023-08-24T05:29:14;94832.75;;;23.41;77.89
6393;BME280;3229;42.674;23.282;2023-08-24T05:31:41;94847.94;;;23.50;77.59
6393;BME280;3229;42.674;23.282;2023-08-24T05:34:08;94851.88;;;23.60;75.90
6393;BME280;3229;42.674;23.282;2023-08-24T05:36:35;94846.91;;;23.51;76.15
6393;BME280;3229;42.674;23.282;2023-08-24T05:39:01;94853.03;;;23.64;76.16
6393;BME280;3229;42.674;23.282;2023-08-24T05:41:28;94851.78;;;23.73;75.17
6393;BME280;3229;42.674;23.282;2023-08-24T05:43:56;94866.75;;;23.84;75.36
6393;BME280;3229;42.674;23.282;2023-08-24T05:46:23;94851.66;;;23.86;74.92
6393;BME280;3229;42.674;23.282;2023-08-24T05:48:50;94867.94;;;24.07;74.26
6393;BME280;3229;42.674;23.282;2023-08-24T05:51:17;94861.16;;;24.17;73.83
6393;BME280;3229;42.674;23.282;2023-08-24T05:53:44;94855.22;;;24.28;72.86
6393;BME280;3229;42.674;23.282;2023-08-24T05:56:10;94862.94;;;24.42;72.94
6393;BME280;3229;42.674;23.282;2023-08-24T05:58:37;94878.09;;;24.51;72.42
6393;BME280;3229;42.674;23.282;2023-08-24T06:01:05;94873.72;;;24.64;72.20
6393;BME280;3229;42.674;23.282;2023-08-24T06:03:33;94868.13;;;24.78;71.65
6393;BME280;3229;42.674;23.282;2023-08-24T06:06:01;94854.56;;;25.00;70.79
6393;BME280;3229;42.674;23.282;2023-08-24T06:08:28;94866.56;;;25.19;69.92
6393;BME280;3229;42.674;23.282;2023-08-24T06:10:56;94867.41;;;25.32;68.95
6393;BME280;3229;42.674;23.282;2023-08-24T06:13:22;94873.22;;;25.45;67.97
6393;BME280;3229;42.674;23.282;2023-08-24T06:15:49;94866.28;;;25.63;68.01
6393;BME280;3229;42.674;23.282;2023-08-24T06:18:17;94857.31;;;26.06;66.78
6393;BME280;3229;42.674;23.282;2023-08-24T06:20:44;94868.34;;;26.71;64.77
6393;BME280;3229;42.674;23.282;2023-08-24T06:23:11;94873.19;;;27.37;62.63
6393;BME280;3229;42.674;23.282;2023-08-24T06:25:39;94871.47;;;27.76;60.82
6393;BME280;3229;42.674;23.282;2023-08-24T06:28:05;94859.31;;;28.09;59.76
6393;BME280;3229;42.674;23.282;2023-08-24T06:30:37;94867.16;;;28.42;59.21
6393;BME280;3229;42.674;23.282;2023-08-24T06:33:04;94874.00;;;28.65;58.41
6393;BME280;3229;42.674;23.282;2023-08-24T06:35:33;94872.34;;;28.81;57.43
6393;BME280;3229;42.674;23.282;2023-08-24T06:38:00;94865.56;;;28.90;56.65
6393;BME280;3229;42.674;23.282;2023-08-24T06:40:28;94870.53;;;29.09;55.35
6393;BME280;3229;42.674;23.282;2023-08-24T06:42:55;94867.75;;;29.20;55.24
6393;BME280;3229;42.674;23.282;2023-08-24T06:45:23;94868.88;;;29.30;54.48
6393;BME280;3229;42.674;23.282;2023-08-24T06:47:49;94869.25;;;29.43;54.35
6393;BME280;3229;42.674;23.282;2023-08-24T06:50:17;94869.72;;;29.67;53.33
6393;BME280;3229;42.674;23.282;2023-08-24T06:52:45;94870.44;;;29.58;53.20
6393;BME280;3229;42.674;23.282;2023-08-24T06:55:12;94866.44;;;29.55;53.50
6393;BME280;3229;42.674;23.282;2023-08-24T06:57:39;94877.19;;;29.76;53.03
6393;BME280;3229;42.674;23.282;2023-08-24T07:00:07;94871.13;;;29.75;53.10
6393;BME280;3229;42.674;23.282;2023-08-24T07:02:34;94867.94;;;29.78;53.63
6393;BME280;3229;42.674;23.282;2023-08-24T07:05:02;94865.50;;;30.09;53.05
6393;BME280;3229;42.674;23.282;2023-08-24T07:07:31;94859.88;;;30.37;51.95
6393;BME280;3229;42.674;23.282;2023-08-24T07:09:59;94852.84;;;30.58;51.74
6393;BME280;3229;42.674;23.282;2023-08-24T07:12:26;94858.25;;;31.04;50.75
6393;BME280;3229;42.674;23.282;2023-08-24T07:14:52;94852.78;;;31.31;49.38
6393;BME280;3229;42.674;23.282;2023-08-24T07:17:19;94851.97;;;31.31;49.86
6393;BME280;3229;42.674;23.282;2023-08-24T07:19:46;94850.91;;;31.32;49.80
6393;BME280;3229;42.674;23.282;2023-08-24T07:22:13;94849.00;;;31.17;49.67
6393;BME280;3229;42.674;23.282;2023-08-24T07:24:40;94842.94;;;30.96;49.88
6393;BME280;3229;42.674;23.282;2023-08-24T07:27:08;94848.41;;;30.74;50.11
6393;BME280;3229;42.674;23.282;2023-08-24T07:29:35;94848.34;;;30.64;51.11
6393;BME280;3229;42.674;23.282;2023-08-24T07:32:02;94851.25;;;30.62;51.28
6393;BME280;3229;42.674;23.282;2023-08-24T07:34:29;94844.41;;;30.71;50.29
6393;BME280;3229;42.674;23.282;2023-08-24T07:36:56;94845.75;;;30.74;50.23
6393;BME280;3229;42.674;23.282;2023-08-24T07:39:23;94848.19;;;30.86;49.90
6393;BME280;3229;42.674;23.282;2023-08-24T07:41:49;94849.81;;;31.02;49.67
6393;BME280;3229;42.674;23.282;2023-08-24T07:44:18;94846.16;;;31.34;48.52
6393;BME280;3229;42.674;23.282;2023-08-24T07:46:45;94819.97;;;31.42;47.30
6393;BME280;3229;42.674;23.282;2023-08-24T07:49:11;94846.16;;;31.75;45.90
6393;BME280;3229;42.674;23.282;2023-08-24T07:51:38;94845.06;;;31.81;45.16
6393;BME280;3229;42.674;23.282;2023-08-24T07:54:05;94841.38;;;31.92;44.62
6393;BME280;3229;42.674;23.282;2023-08-24T07:56:33;94848.75;;;31.95;44.75
6393;BME280;3229;42.674;23.282;2023-08-24T07:58:59;94843.94;;;32.12;44.43
6393;BME280;3229;42.674;23.282;2023-08-24T08:01:28;94843.94;;;32.12;44.21
6393;BME280;3229;42.674;23.282;2023-08-24T08:03:56;94832.00;;;32.25;44.45
6393;BME280;3229;42.674;23.282;2023-08-24T08:06:22;94839.56;;;32.62;44.08
6393;BME280;3229;42.674;23.282;2023-08-24T08:08:50;94850.03;;;32.88;43.05
6393;BME280;3229;42.674;23.282;2023-08-24T08:11:17;94847.94;;;32.80;43.24
6393;BME280;3229;42.674;23.282;2023-08-24T08:13:44;94840.22;;;32.88;43.36
6393;BME280;3229;42.674;23.282;2023-08-24T08:16:10;94847.53;;;33.12;42.56
6393;BME280;3229;42.674;23.282;2023-08-24T08:18:39;94846.41;;;33.18;42.11
6393;BME280;3229;42.674;23.282;2023-08-24T08:21:09;94841.22;;;33.37;42.15
6393;BME280;3229;42.674;23.282;2023-08-24T08:23:37;94846.50;;;33.47;41.80
6393;BME280;3229;42.674;23.282;2023-08-24T08:26:04;94841.19;;;33.42;41.46
6393;BME280;3229;42.674;23.282;2023-08-24T08:28:31;94841.00;;;33.33;41.81
6393;BME280;3229;42.674;23.282;2023-08-24T08:31:00;94832.59;;;33.26;42.31
6393;BME280;3229;42.674;23.282;2023-08-24T08:33:27;94840.00;;;33.24;42.00
6393;BME280;3229;42.674;23.282;2023-08-24T08:35:55;94817.31;;;33.13;41.38
6393;BME280;3229;42.674;23.282;2023-08-24T08:38:22;94832.28;;;33.28;41.62
6393;BME280;3229;42.674;23.282;2023-08-24T08:40:51;94834.06;;;33.37;41.38
6393;BME280;3229;42.674;23.282;2023-08-24T08:43:21;94833.75;;;33.49;41.32
6393;BME280;3229;42.674;23.282;2023-08-24T08:45:49;94828.03;;;33.66;40.76
6393;BME280;3229;42.674;23.282;2023-08-24T08:48:16;94817.53;;;33.80;40.10
6393;BME280;3229;42.674;23.282;2023-08-24T08:50:42;94814.34;;;34.07;40.10
6393;BME280;3229;42.674;23.282;2023-08-24T08:53:11;94815.16;;;34.31;39.61
6393;BME280;3229;42.674;23.282;2023-08-24T08:55:38;94809.91;;;34.50;39.28
6393;BME280;3229;42.674;23.282;2023-08-24T08:58:05;94811.56;;;34.65;39.19
6393;BME280;3229;42.674;23.282;2023-08-24T09:00:32;94812.44;;;34.79;38.76
6393;BME280;3229;42.674;23.282;2023-08-24T09:03:00;94796.34;;;34.89;38.59
6393;BME280;3229;42.674;23.282;2023-08-24T09:05:28;94804.69;;;35.02;38.29
6393;BME280;3229;42.674;23.282;2023-08-24T09:07:56;94794.41;;;34.95;38.46
6393;BME280;3229;42.674;23.282;2023-08-24T09:10:26;94799.38;;;35.02;38.60
6393;BME280;3229;42.674;23.282;2023-08-24T09:12:53;94793.59;;;35.13;38.37
6393;BME280;3229;42.674;23.282;2023-08-24T09:15:26;94790.28;;;35.22;38.56
6393;BME280;3229;42.674;23.282;2023-08-24T09:17:53;94787.44;;;35.32;38.21
6393;BME280;3229;42.674;23.282;2023-08-24T09:20:20;94782.25;;;35.40;38.05
6393;BME280;3229;42.674;23.282;2023-08-24T09:22:47;94773.94;;;35.47;38.00
6393;BME280;3229;42.674;23.282;2023-08-24T09:25:14;94768.16;;;35.40;38.28
6393;BME280;3229;42.674;23.282;2023-08-24T09:27:42;94770.84;;;35.40;37.88
6393;BME280;3229;42.674;23.282;2023-08-24T09:30:10;94772.88;;;35.29;37.88
6393;BME280;3229;42.674;23.282;2023-08-24T09:32:37;94747.31;;;35.14;37.83
6393;BME280;3229;42.674;23.282;2023-08-24T09:35:06;94767.66;;;35.24;37.97
6393;BME280;3229;42.674;23.282;2023-08-24T09:37:34;94758.69;;;35.20;38.02
6393;BME280;3229;42.674;23.282;2023-08-24T09:40:02;94762.13;;;35.21;38.27
6393;BME280;3229;42.674;23.282;2023-08-24T09:42:37;94742.00;;;35.14;37.86
6393;BME280;3229;42.674;23.282;2023-08-24T09:45:06;94747.66;;;35.27;37.97
6393;BME280;3229;42.674;23.282;2023-08-24T09:47:35;94751.31;;;35.31;37.76
6393;BME280;3229;42.674;23.282;2023-08-24T09:50:02;94746.00;;;35.31;37.61
6393;BME280;3229;42.674;23.282;2023-08-24T09:52:31;94740.41;;;35.46;38.03
6393;BME280;3229;42.674;23.282;2023-08-24T09:55:02;94740.25;;;35.56;37.67
6393;BME280;3229;42.674;23.282;2023-08-24T09:57:33;94734.03;;;35.47;37.18
6393;BME280;3229;42.674;23.282;2023-08-24T10:00:06;94740.34;;;35.51;37.20
6393;BME280;3229;42.674;23.282;2023-08-24T10:02:38;94737.91;;;35.68;37.17
6393;BME280;3229;42.674;23.282;2023-08-24T10:05:07;94733.25;;;35.74;36.88
6393;BME280;3229;42.674;23.282;2023-08-24T10:07:37;94730.50;;;35.79;35.69
6393;BME280;3229;42.674;23.282;2023-08-24T10:10:08;94728.03;;;35.83;35.85
6393;BME280;3229;42.674;23.282;2023-08-24T10:12:41;94723.00;;;35.95;35.82
6393;BME280;3229;42.674;23.282;2023-08-24T10:15:12;94733.78;;;36.04;35.80
6393;BME280;3229;42.674;23.282;2023-08-24T10:17:39;94711.31;;;36.10;35.60
6393;BME280;3229;42.674;23.282;2023-08-24T10:20:07;94729.13;;;36.23;35.82
6393;BME280;3229;42.674;23.282;2023-08-24T10:22:37;94720.91;;;36.33;35.20
6393;BME280;3229;42.674;23.282;2023-08-24T10:25:07;94718.84;;;36.44;34.94
6393;BME280;3229;42.674;23.282;2023-08-24T10:27:34;94723.34;;;36.57;34.71
6393;BME280;3229;42.674;23.282;2023-08-24T10:30:02;94729.22;;;36.46;34.52
6393;BME280;3229;42.674;23.282;2023-08-24T10:32:30;94723.56;;;36.33;34.54
6393;BME280;3229;42.674;23.282;2023-08-24T10:34:58;94719.38;;;36.18;34.19
6393;BME280;3229;42.674;23.282;2023-08-24T10:37:26;94709.59;;;36.14;34.29
6393;BME280;3229;42.674;23.282;2023-08-24T10:39:53;94703.28;;;35.82;35.10
6393;BME280;3229;42.674;23.282;2023-08-24T10:42:19;94705.88;;;35.74;35.24
6393;BME280;3229;42.674;23.282;2023-08-24T10:44:47;94715.53;;;35.69;35.14
6393;BME280;3229;42.674;23.282;2023-08-24T10:47:15;94710.69;;;35.58;35.34
6393;BME280;3229;42.674;23.282;2023-08-24T10:49:57;94706.91;;;35.45;35.53
6393;BME280;3229;42.674;23.282;2023-08-24T10:52:25;94708.28;;;35.29;35.25
6393;BME280;3229;42.674;23.282;2023-08-24T10:54:54;94708.63;;;35.08;34.99
6393;BME280;3229;42.674;23.282;2023-08-24T10:57:22;94715.31;;;34.87;35.29
6393;BME280;3229;42.674;23.282;2023-08-24T11:00:01;94705.38;;;34.60;35.94
6393;BME280;3229;42.674;23.282;2023-08-24T11:02:31;94716.44;;;34.24;38.45
6393;BME280;3229;42.674;23.282;2023-08-24T11:05:16;94706.84;;;33.85;40.65
6393;BME280;3229;42.674;23.282;2023-08-24T11:07:53;94698.66;;;33.58;41.34
6393;BME280;3229;42.674;23.282;2023-08-24T11:10:21;94695.28;;;33.23;42.20
6393;BME280;3229;42.674;23.282;2023-08-24T11:13:08;94703.41;;;33.03;41.64
6393;BME280;3229;42.674;23.282;2023-08-24T11:15:38;94709.06;;;32.91;40.35
6393;BME280;3229;42.674;23.282;2023-08-24T11:18:12;94708.66;;;32.74;40.05
6393;BME280;3229;42.674;23.282;2023-08-24T11:20:42;94704.78;;;32.61;40.01
6393;BME280;3229;42.674;23.282;2023-08-24T11:23:10;94704.56;;;32.52;39.79
6393;BME280;3229;42.674;23.282;2023-08-24T11:25:37;94702.75;;;32.47;40.49
6393;BME280;3229;42.674;23.282;2023-08-24T11:28:04;94703.84;;;32.41;40.40
6393;BME280;3229;42.674;23.282;2023-08-24T11:30:31;94705.19;;;32.39;40.84
6393;BME280;3229;42.674;23.282;2023-08-24T11:32:59;94712.91;;;32.25;40.67
6393;BME280;3229;42.674;23.282;2023-08-24T11:35:26;94716.41;;;32.10;40.76
6393;BME280;3229;42.674;23.282;2023-08-24T11:37:54;94722.00;;;32.04;40.83
6393;BME280;3229;42.674;23.282;2023-08-24T11:40:21;94714.41;;;31.87;41.17
6393;BME280;3229;42.674;23.282;2023-08-24T11:42:53;94713.13;;;31.74;41.32
6393;BME280;3229;42.674;23.282;2023-08-24T11:45:20;94687.00;;;31.52;41.41
6393;BME280;3229;42.674;23.282;2023-08-24T11:47:48;94716.81;;;31.68;41.61
6393;BME280;3229;42.674;23.282;2023-08-24T11:50:15;94711.28;;;31.64;41.86
6393;BME280;3229;42.674;23.282;2023-08-24T11:52:42;94716.31;;;31.66;42.04
6393;BME280;3229;42.674;23.282;2023-08-24T11:55:10;94712.59;;;31.67;42.22
6393;BME280;3229;42.674;23.282;2023-08-24T11:57:38;94708.63;;;31.64;42.46
6393;BME280;3229;42.674;23.282;2023-08-24T12:00:06;94711.28;;;31.59;42.33
6393;BME280;3229;42.674;23.282;2023-08-24T12:02:34;94701.00;;;31.58;42.62
6393;BME280;3229;42.674;23.282;2023-08-24T12:05:06;94672.50;;;31.39;42.22
6393;BME280;3229;42.674;23.282;2023-08-24T12:07:33;94687.28;;;31.45;42.23
6393;BME280;3229;42.674;23.282;2023-08-24T12:10:00;94684.13;;;31.43;42.29
6393;BME280;3229;42.674;23.282;2023-08-24T12:12:29;94672.75;;;31.38;42.52
6393;BME280;3229;42.674;23.282;2023-08-24T12:14:55;94674.09;;;31.20;42.45
6393;BME280;3229;42.674;23.282;2023-08-24T12:17:25;94668.56;;;31.06;43.20
6393;BME280;3229;42.674;23.282;2023-08-24T12:20:01;94670.19;;;30.92;42.75
6393;BME280;3229;42.674;23.282;2023-08-24T12:22:32;94665.66;;;30.82;43.66
6393;BME280;3229;42.674;23.282;2023-08-24T12:24:59;94653.75;;;30.69;44.40
6393;BME280;3229;42.674;23.282;2023-08-24T12:27:26;94675.19;;;30.78;44.83
6393;BME280;3229;42.674;23.282;2023-08-24T12:29:54;94673.59;;;30.77;44.93
6393;BME280;3229;42.674;23.282;2023-08-24T12:32:41;94680.22;;;30.80;45.06
6393;BME280;3229;42.674;23.282;2023-08-24T12:35:08;94679.94;;;30.86;44.73
6393;BME280;3229;42.674;23.282;2023-08-24T12:37:36;94678.63;;;30.94;44.69
6393;BME280;3229;42.674;23.282;2023-08-24T12:40:04;94681.50;;;31.03;44.61
6393;BME280;3229;42.674;23.282;2023-08-24T12:42:31;94673.84;;;31.06;44.66
6393;BME280;3229;42.674;23.282;2023-08-24T12:44:59;94675.16;;;31.14;44.93
6393;BME280;3229;42.674;23.282;2023-08-24T12:47:26;94675.66;;;31.21;43.65
6393;BME280;3229;42.674;23.282;2023-08-24T12:49:53;94669.06;;;31.29;43.14
6393;BME280;3229;42.674;23.282;2023-08-24T12:52:22;94647.69;;;31.10;42.92
6393;BME280;3229;42.674;23.282;2023-08-24T12:54:49;94671.44;;;31.20;43.08
6393;BME280;3229;42.674;23.282;2023-08-24T12:57:15;94679.34;;;31.25;42.80
6393;BME280;3229;42.674;23.282;2023-08-24T12:59:44;94697.34;;;31.28;42.38
6393;BME280;3229;42.674;23.282;2023-08-24T13:02:13;94686.78;;;31.33;42.43
6393;BME280;3229;42.674;23.282;2023-08-24T13:04:40;94694.41;;;31.45;42.46
6393;BME280;3229;42.674;23.282;2023-08-24T13:07:08;94695.97;;;31.51;42.85
6393;BME280;3229;42.674;23.282;2023-08-24T13:09:35;94693.09;;;31.53;42.48
6393;BME280;3229;42.674;23.282;2023-08-24T13:12:03;94696.19;;;31.65;41.23
6393;BME280;3229;42.674;23.282;2023-08-24T13:14:30;94694.63;;;31.64;41.45